Time;durP1;ratioP1;P1;durP2;ratioP2;P2;SDS_P1;SDS_P2;PMS_P1;PMS_P2;Temp;Humidity;BMP_temperature;BMP_pressure;BME280_temperature;BME280_humidity;BME280_pressure;Samples;Min_cycle;Max_cycle;Signal;HPM_P1;HPM_P2
2022/11/19 00:00:39;;;;;;;17.70;9.88;;;;;;;9.76;71.45;100914.19;4992656;28;20022;-42
2022/11/19 00:03:04;;;;;;;19.45;9.40;;;;;;;9.98;70.95;100919.78;4992875;28;20438;-46
2022/11/19 00:05:29;;;;;;;19.80;9.65;;;;;;;9.59;72.12;100926.06;4993396;28;20038;-40
2022/11/19 00:07:54;;;;;;;17.95;9.63;;;;;;;9.74;71.05;100925.47;4993867;28;20033;-44
2022/11/19 00:10:20;;;;;;;18.35;9.60;;;;;;;9.27;71.93;100925.44;4992866;28;20081;-40
2022/11/19 00:12:54;;;;;;;18.10;9.35;;;;;;;9.65;70.89;100925.28;4992616;28;20030;-41
2022/11/19 00:15:21;;;;;;;19.65;10.15;;;;;;;9.67;71.12;100934.88;4991842;28;20030;-41
2022/11/19 00:17:46;;;;;;;19.42;9.93;;;;;;;9.70;70.87;100923.63;4991519;28;20572;-42
2022/11/19 00:20:13;;;;;;;18.67;9.65;;;;;;;9.70;70.91;100928.84;4993857;28;20113;-40
2022/11/19 00:22:40;;;;;;;20.77;9.80;;;;;;;9.39;72.08;100943.03;4992648;28;20117;-40
2022/11/19 00:25:06;;;;;;;20.27;9.32;;;;;;;9.23;71.75;100936.66;4992840;28;20076;-42
2022/11/19 00:27:32;;;;;;;18.17;9.27;;;;;;;9.39;71.42;100927.44;4994392;28;20245;-40
2022/11/19 00:29:57;;;;;;;19.35;10.02;;;;;;;9.58;70.92;100920.81;4993282;28;20022;-40
2022/11/19 00:32:22;;;;;;;18.10;9.60;;;;;;;9.63;71.11;100921.78;4991893;28;20453;-40
2022/11/19 00:34:47;;;;;;;17.40;9.38;;;;;;;9.29;71.61;100931.56;4993608;28;20102;-44
2022/11/19 00:37:13;;;;;;;18.75;9.82;;;;;;;9.36;71.09;100924.75;4994138;28;20292;-40
2022/11/19 00:39:39;;;;;;;20.48;9.95;;;;;;;9.42;70.99;100927.47;4994821;28;20049;-43
2022/11/19 00:42:04;;;;;;;20.40;10.35;;;;;;;9.48;71.13;100940.59;4994328;28;20022;-42
2022/11/19 00:44:29;;;;;;;17.05;9.35;;;;;;;9.73;69.94;100945.41;4994153;28;20034;-41
2022/11/19 00:46:54;;;;;;;16.85;9.68;;;;;;;9.26;71.66;100948.84;4993450;28;20030;-41
2022/11/19 00:49:20;;;;;;;20.92;10.25;;;;;;;9.33;71.04;100951.56;4993518;28;20048;-40
2022/11/19 00:51:45;;;;;;;18.92;10.38;;;;;;;9.49;70.77;100957.97;4993236;28;20164;-41
2022/11/19 00:54:10;;;;;;;20.08;10.38;;;;;;;9.40;70.67;100956.91;4993336;28;20034;-41
2022/11/19 00:56:36;;;;;;;18.67;10.00;;;;;;;9.55;70.36;100957.22;4993891;28;20294;-40
2022/11/19 00:59:02;;;;;;;21.13;10.50;;;;;;;9.22;71.57;100957.41;4994017;28;20038;-42
2022/11/19 01:01:27;;;;;;;19.48;9.80;;;;;;;9.17;71.63;100965.13;4993699;28;20467;-44
2022/11/19 01:03:53;;;;;;;18.45;9.88;;;;;;;8.66;72.47;100964.88;4993845;28;20030;-43
2022/11/19 01:06:21;;;;;;;19.75;10.88;;;;;;;9.17;71.08;100975.53;4994100;28;20018;-40
2022/11/19 01:08:48;;;;;;;20.00;10.38;;;;;;;8.92;71.98;100965.47;4994035;28;20030;-41
2022/11/19 01:11:25;;;;;;;21.30;11.18;;;;;;;8.65;72.77;100970.06;4993962;28;20084;-41
2022/11/19 01:13:51;;;;;;;18.40;10.20;;;;;;;9.05;71.61;100977.00;4991728;28;20430;-41
2022/11/19 01:16:26;;;;;;;19.20;9.82;;;;;;;8.82;72.15;100976.53;4993375;28;20034;-41
2022/11/19 01:18:51;;;;;;;20.83;10.82;;;;;;;8.84;72.20;100980.03;4991793;28;20033;-43
2022/11/19 01:21:19;;;;;;;21.45;10.45;;;;;;;9.06;71.46;100981.38;4990675;28;20052;-41
2022/11/19 01:23:45;;;;;;;21.35;10.68;;;;;;;8.90;71.70;100986.22;4990623;28;20479;-42
2022/11/19 01:26:11;;;;;;;23.02;11.45;;;;;;;8.79;72.13;100990.31;4991174;28;20547;-45
2022/11/19 01:28:37;;;;;;;21.60;11.18;;;;;;;9.30;70.83;100994.88;4991319;28;20034;-45
2022/11/19 01:31:14;;;;;;;25.17;11.75;;;;;;;9.04;71.40;100993.44;4991639;28;20027;-41
2022/11/19 01:33:40;;;;;;;23.85;12.30;;;;;;;8.96;71.97;100995.91;4993345;28;20030;-41
2022/11/19 01:36:09;;;;;;;27.15;13.00;;;;;;;8.95;71.56;100995.03;4992868;28;20053;-41
2022/11/19 01:38:35;;;;;;;28.30;13.45;;;;;;;8.64;72.47;100995.19;4993308;28;20018;-42
2022/11/19 01:41:01;;;;;;;27.10;13.57;;;;;;;8.84;71.28;100996.50;4992642;28;20033;-41
2022/11/19 01:43:38;;;;;;;32.05;14.50;;;;;;;8.57;72.27;100993.28;4992736;28;20109;-40
2022/11/19 01:46:03;;;;;;;29.35;14.30;;;;;;;8.42;72.58;101001.56;4994728;28;20034;-42
2022/11/19 01:48:31;;;;;;;30.27;13.68;;;;;;;8.37;72.76;100991.91;4994924;28;20470;-40
2022/11/19 01:51:09;;;;;;;28.70;13.80;;;;;;;7.97;73.17;100998.69;4994246;28;20033;-43
2022/11/19 01:53:35;;;;;;;26.95;13.30;;;;;;;8.45;71.95;100996.47;4994216;28;20046;-42
2022/11/19 01:56:04;;;;;;;28.38;13.75;;;;;;;8.15;72.68;100995.69;4994786;28;20030;-39
2022/11/19 01:58:37;;;;;;;28.92;13.90;;;;;;;8.31;72.02;101000.44;4994480;28;20026;-43
2022/11/19 02:01:03;;;;;;;28.13;13.85;;;;;;;8.41;71.80;100998.97;4996005;28;20030;-41
2022/11/19 02:03:31;;;;;;;26.67;13.80;;;;;;;8.42;71.69;101004.19;4996980;28;20030;-40
2022/11/19 02:05:59;;;;;;;28.30;14.82;;;;;;;8.19;72.20;101007.03;4995983;28;20026;-40
2022/11/19 02:08:36;;;;;;;28.58;13.95;;;;;;;8.59;71.59;101012.41;4995333;28;20026;-41
2022/11/19 02:11:19;;;;;;;33.40;14.98;;;;;;;8.33;71.29;101016.97;4994384;28;20034;-41
2022/11/19 02:13:56;;;;;;;31.27;15.20;;;;;;;8.26;72.09;101016.72;4993747;28;20026;-40
2022/11/19 02:16:29;;;;;;;33.72;15.10;;;;;;;8.47;71.43;101023.38;4994166;28;20061;-41
2022/11/19 02:19:10;;;;;;;36.13;15.50;;;;;;;8.04;72.37;101024.00;4994098;28;20073;-40
2022/11/19 02:21:46;;;;;;;32.92;15.60;;;;;;;8.18;72.24;101032.09;4993511;28;20026;-40
2022/11/19 02:24:46;;;;;;;35.20;15.10;;;;;;;8.38;71.71;101033.53;4993778;28;20229;-40
2022/11/19 02:27:23;;;;;;;34.53;15.85;;;;;;;8.07;72.17;101039.63;4968200;28;20503;-40
2022/11/19 02:30:02;;;;;;;32.25;15.20;;;;;;;8.03;72.72;101045.59;4993952;28;20062;-41
2022/11/19 02:32:36;;;;;;;40.80;15.73;;;;;;;8.10;72.23;101044.91;4993351;28;20150;-41
2022/11/19 02:35:15;;;;;;;32.58;15.02;;;;;;;8.09;71.88;101052.66;4993252;28;20109;-41
2022/11/19 02:37:48;;;;;;;35.25;15.55;;;;;;;7.81;73.04;101040.66;4993353;28;20110;-41
2022/11/19 02:40:31;;;;;;;35.88;15.55;;;;;;;7.71;72.88;101056.81;4993497;28;20093;-41
2022/11/19 02:43:14;;;;;;;31.83;15.35;;;;;;;7.56;72.93;101054.66;4993293;28;20030;-44
2022/11/19 02:45:52;;;;;;;33.60;15.40;;;;;;;7.75;72.61;101046.56;4993106;28;20487;-43
2022/11/19 02:48:24;;;;;;;35.50;16.20;;;;;;;8.07;71.70;101057.81;4993410;28;20078;-41
2022/11/19 02:50:52;;;;;;;34.97;15.30;;;;;;;7.91;72.07;101059.97;4991419;28;20029;-41
2022/11/19 02:53:18;;;;;;;32.03;15.10;;;;;;;7.73;72.41;101056.03;4993454;28;20068;-44
2022/11/19 02:56:09;;;;;;;34.88;14.95;;;;;;;7.62;71.75;101059.16;4993217;28;20514;-44
2022/11/19 03:06:48;;;;;;;31.95;15.02;;;;;;;7.83;71.37;101056.28;4992964;28;20096;-44
2022/11/19 03:09:15;;;;;;;29.52;14.70;;;;;;;7.71;71.75;101075.88;4992662;28;20030;-42
2022/11/19 03:11:46;;;;;;;34.95;15.90;;;;;;;7.86;71.34;101067.63;4992640;28;20395;-42
2022/11/19 03:17:20;;;;;;;30.42;14.63;;;;;;;8.10;70.48;101076.09;4992602;28;20049;-43
2022/11/19 03:20:03;;;;;;;32.78;15.10;;;;;;;7.91;71.10;101075.53;4992897;28;20030;-41
2022/11/19 03:22:33;;;;;;;31.58;15.60;;;;;;;7.33;71.05;101058.31;4993180;28;20343;-41
2022/11/19 03:25:08;;;;;;;31.65;15.80;;;;;;;7.60;70.84;101076.41;4992788;28;20032;-41
2022/11/19 03:27:58;;;;;;;30.42;15.27;;;;;;;7.23;71.72;101075.31;4993582;28;20030;-41
2022/11/19 03:30:23;;;;;;;31.27;15.10;;;;;;;7.14;71.79;101074.16;4992746;28;20018;-41
2022/11/19 03:32:58;;;;;;;29.45;15.05;;;;;;;7.37;71.63;101075.75;4993293;28;20026;-42
2022/11/19 03:35:33;;;;;;;;;;;;;;;7.33;70.81;101072.16;4994438;28;20081;-40
2022/11/19 03:38:03;;;;;;;31.35;14.05;;;;;;;7.19;71.86;101075.19;4992889;28;19914;-39
2022/11/19 03:40:31;;;;;;;30.23;15.45;;;;;;;7.18;71.90;101074.31;4992541;28;20372;-40
2022/11/19 03:43:00;;;;;;;34.08;15.85;;;;;;;7.19;71.60;101081.28;4992614;28;20032;-40
2022/11/19 03:45:28;;;;;;;32.33;15.65;;;;;;;7.53;70.59;101084.84;4992219;28;20084;-40
2022/11/19 03:47:55;;;;;;;32.65;16.17;;;;;;;7.38;71.20;101090.44;4991808;28;20112;-41
2022/11/19 03:50:48;;;;;;;30.20;15.88;;;;;;;7.37;71.27;101085.25;4992039;28;20115;-42
2022/11/19 03:53:14;;;;;;;30.98;16.10;;;;;;;7.16;71.25;101094.13;4992111;28;20053;-41
2022/11/19 03:55:46;;;;;;;29.55;16.08;;;;;;;7.46;70.63;101088.97;4992392;28;20534;-39
2022/11/19 03:58:12;;;;;;;30.42;16.08;;;;;;;7.60;70.04;101100.63;4992729;28;20022;-40
2022/11/19 04:00:37;;;;;;;31.63;16.17;;;;;;;7.26;70.82;101085.78;4991965;28;20026;-42
2022/11/19 04:03:03;;;;;;;32.60;16.98;;;;;;;7.21;71.24;101086.47;4992975;28;20509;-42
2022/11/19 04:05:29;;;;;;;31.27;16.35;;;;;;;7.63;70.38;101094.63;4993163;28;20030;-40
2022/11/19 04:07:54;;;;;;;29.98;16.63;;;;;;;7.46;70.67;101099.34;4993915;28;20038;-40
2022/11/19 04:10:19;;;;;;;35.08;17.75;;;;;;;7.42;70.49;101100.09;4993406;28;20033;-42
2022/11/19 04:12:45;;;;;;;34.65;16.58;;;;;;;7.51;70.22;101102.06;4993946;28;20038;-39
2022/11/19 04:15:11;;;;;;;32.88;17.27;;;;;;;6.98;70.82;101116.88;4992909;28;20172;-43
2022/11/19 04:17:37;;;;;;;36.92;17.88;;;;;;;7.25;70.22;101117.75;4991531;28;20526;-42
2022/11/19 04:20:04;;;;;;;35.33;17.67;;;;;;;7.11;70.32;101119.03;4991534;28;20080;-41
2022/11/19 04:22:29;;;;;;;35.45;17.77;;;;;;;7.19;70.72;101125.34;4991459;28;20105;-41
2022/11/19 04:24:54;;;;;;;34.95;17.73;;;;;;;7.02;70.76;101123.03;4991465;28;20122;-39
2022/11/19 04:27:20;;;;;;;36.17;17.58;;;;;;;7.16;70.12;101127.81;4991407;28;20100;-39
2022/11/19 04:29:45;;;;;;;35.20;18.35;;;;;;;7.18;69.88;101126.19;4991119;28;20030;-39
2022/11/19 04:32:10;;;;;;;35.50;19.00;;;;;;;7.18;70.58;101130.47;4991358;28;20033;-38
2022/11/19 04:34:35;;;;;;;37.08;18.05;;;;;;;7.13;70.54;101132.06;4991956;28;20114;-42
2022/11/19 04:37:01;;;;;;;36.40;18.27;;;;;;;6.95;70.55;101134.06;4992588;28;20030;-48
2022/11/19 04:39:26;;;;;;;41.72;19.33;;;;;;;6.92;70.40;101134.84;4992298;28;20653;-38
2022/11/19 04:41:51;;;;;;;35.95;18.42;;;;;;;6.98;70.29;101141.91;4991415;28;20456;-44
2022/11/19 04:44:17;;;;;;;36.95;18.80;;;;;;;6.30;71.46;101146.56;4991676;28;20030;-43
2022/11/19 04:46:42;;;;;;;38.53;19.60;;;;;;;6.62;70.78;101149.38;4992763;28;20307;-39
2022/11/19 04:49:07;;;;;;;41.05;20.20;;;;;;;6.67;71.03;101153.00;4992107;28;20054;-39
2022/11/19 04:51:32;;;;;;;37.78;19.27;;;;;;;6.58;70.53;101140.63;4991659;28;20506;-42
2022/11/19 04:53:58;;;;;;;38.38;19.23;;;;;;;6.90;69.69;101157.22;4990744;28;20022;-45
2022/11/19 04:56:23;;;;;;;38.28;20.10;;;;;;;6.64;69.84;101161.56;4990894;28;20121;-41
2022/11/19 04:58:48;;;;;;;40.42;20.45;;;;;;;6.92;69.69;101159.03;4990700;28;20494;-41
2022/11/19 05:01:14;;;;;;;38.72;20.00;;;;;;;6.61;70.52;101165.75;4990568;28;20041;-42
2022/11/19 05:03:39;;;;;;;41.30;20.27;;;;;;;6.46;70.07;101164.38;4990780;28;20093;-43
2022/11/19 05:06:04;;;;;;;41.25;21.00;;;;;;;6.62;69.60;101168.38;4990854;28;20483;-40
2022/11/19 05:08:30;;;;;;;42.88;21.10;;;;;;;6.66;70.08;101161.59;4990442;28;20030;-40
2022/11/19 05:10:55;;;;;;;40.63;20.67;;;;;;;6.33;70.06;101167.41;4990729;28;20018;-42
2022/11/19 05:13:20;;;;;;;43.08;21.83;;;;;;;6.27;69.86;101169.78;4990854;28;20023;-41
2022/11/19 05:15:46;;;;;;;38.25;21.00;;;;;;;5.97;69.84;101166.97;4991824;28;20018;-40
2022/11/19 05:18:12;;;;;;;40.38;21.70;;;;;;;5.76;70.14;101166.13;4991744;28;20033;-46
2022/11/19 05:20:38;;;;;;;42.72;22.13;;;;;;;6.05;68.94;101170.69;4994705;28;20066;-41
2022/11/19 05:23:03;;;;;;;40.15;21.42;;;;;;;6.12;69.73;101176.97;4995517;28;20030;-39
2022/11/19 05:25:28;;;;;;;41.60;20.95;;;;;;;6.49;68.65;101174.84;4995141;28;20026;-39
2022/11/19 05:27:54;;;;;;;39.75;20.75;;;;;;;6.56;68.31;101170.78;4994579;28;20034;-42
2022/11/19 05:30:19;;;;;;;40.38;20.77;;;;;;;6.51;68.73;101178.41;4994844;28;20077;-40
2022/11/19 05:32:46;;;;;;;39.13;20.55;;;;;;;6.07;68.49;101175.94;4994496;28;20046;-43
2022/11/19 05:35:11;;;;;;;39.30;21.25;;;;;;;6.11;68.55;101189.03;4994223;28;20031;-40
2022/11/19 05:37:36;;;;;;;40.53;21.75;;;;;;;6.38;68.02;101198.63;4994347;28;20038;-43
2022/11/19 05:40:02;;;;;;;37.65;20.55;;;;;;;6.15;68.72;101178.81;4994777;28;20144;-39
2022/11/19 05:42:27;;;;;;;38.72;20.17;;;;;;;5.71;70.02;101197.00;4994118;28;20030;-39
2022/11/19 05:44:52;;;;;;;38.17;20.38;;;;;;;6.23;68.67;101196.34;4994230;28;20486;-40
2022/11/19 05:47:18;;;;;;;36.83;19.25;;;;;;;5.63;69.64;101203.59;4997220;28;20072;-39
2022/11/19 05:49:43;;;;;;;35.00;19.30;;;;;;;5.66;69.09;101211.47;4998409;28;20524;-45
2022/11/19 05:52:09;;;;;;;37.30;20.70;;;;;;;5.51;69.71;101213.47;4998516;28;20465;-37
2022/11/19 05:54:35;;;;;;;39.42;19.30;;;;;;;5.44;68.93;101206.28;4999060;28;20045;-40
2022/11/19 05:57:00;;;;;;;37.55;19.38;;;;;;;5.72;68.86;101218.59;4996989;28;20030;-39
2022/11/19 05:59:25;;;;;;;35.55;18.48;;;;;;;5.13;70.64;101218.81;4995627;28;20045;-41
2022/11/19 06:01:51;;;;;;;35.85;18.73;;;;;;;5.27;69.99;101215.06;4993848;28;20030;-40
2022/11/19 06:04:16;;;;;;;36.88;19.08;;;;;;;5.29;69.97;101218.63;4994249;28;20026;-42
2022/11/19 06:06:41;;;;;;;36.10;18.85;;;;;;;5.94;68.94;101220.31;4993942;28;20059;-36
2022/11/19 06:09:07;;;;;;;36.17;19.50;;;;;;;5.58;69.32;101223.22;4994130;28;20035;-40
2022/11/19 06:11:49;;;;;;;32.72;18.08;;;;;;;5.31;69.40;101216.94;4993771;28;20084;-42
2022/11/19 06:14:25;;;;;;;32.50;17.90;;;;;;;5.48;69.14;101238.31;4993876;28;20458;-38
2022/11/19 06:16:58;;;;;;;34.00;18.05;;;;;;;5.80;68.77;101240.44;4993747;28;20462;-42
2022/11/19 06:19:24;;;;;;;34.13;18.10;;;;;;;5.83;68.08;101239.69;4994208;28;20026;-38
2022/11/19 06:21:50;;;;;;;33.95;18.58;;;;;;;5.66;67.81;101249.41;4994157;28;20030;-39
2022/11/19 06:24:16;;;;;;;33.47;18.70;;;;;;;5.55;67.56;101246.38;4994078;28;20134;-41
2022/11/19 06:26:42;;;;;;;34.08;18.88;;;;;;;5.46;67.23;101255.47;4994077;28;20035;-43
2022/11/19 06:29:07;;;;;;;33.92;19.20;;;;;;;5.25;68.53;101258.94;4994028;28;20026;-39
2022/11/19 06:31:33;;;;;;;34.55;18.40;;;;;;;5.35;68.78;101265.41;4992451;28;20033;-38
2022/11/19 06:33:58;;;;;;;34.58;18.67;;;;;;;5.39;68.30;101256.03;4993772;28;20034;-39
2022/11/19 06:36:24;;;;;;;34.20;18.13;;;;;;;5.72;68.43;101263.44;4993580;28;20022;-40
2022/11/19 06:38:49;;;;;;;33.05;18.13;;;;;;;5.55;67.25;101264.47;4993835;28;20525;-40
2022/11/19 06:41:15;;;;;;;34.90;18.27;;;;;;;5.74;67.32;101268.66;4995777;28;20022;-41
2022/11/19 06:43:41;;;;;;;32.08;18.00;;;;;;;5.48;67.73;101275.41;4997326;28;20022;-39
2022/11/19 06:46:07;;;;;;;33.20;17.45;;;;;;;5.40;67.61;101279.38;4997481;28;20030;-39
2022/11/19 06:48:33;;;;;;;32.15;17.23;;;;;;;5.65;66.86;101276.06;4996415;28;20034;-40
2022/11/19 06:51:00;;;;;;;34.85;18.38;;;;;;;4.93;67.76;101280.00;4993407;28;20040;-40
2022/11/19 06:53:25;;;;;;;33.92;18.10;;;;;;;5.48;67.99;101284.88;4993336;28;20106;-39
2022/11/19 06:56:02;;;;;;;31.63;17.52;;;;;;;5.28;67.80;101294.41;4993756;28;20034;-40
2022/11/19 06:58:28;;;;;;;35.15;18.10;;;;;;;5.49;67.34;101279.75;4994291;28;20021;-37
2022/11/19 07:00:54;;;;;;;31.92;17.35;;;;;;;5.62;67.19;101283.69;4993707;28;20108;-39
2022/11/19 07:03:20;;;;;;;32.50;17.08;;;;;;;5.10;67.28;101284.19;4994607;28;20030;-41
2022/11/19 07:05:53;;;;;;;33.85;17.08;;;;;;;5.46;67.27;101287.38;4994159;28;20549;-41
2022/11/19 07:08:18;;;;;;;32.22;17.10;;;;;;;5.29;67.84;101293.59;4995577;28;20051;-38
2022/11/19 07:10:43;;;;;;;32.88;18.40;;;;;;;5.65;66.68;101299.34;4995103;28;20029;-41
2022/11/19 07:13:09;;;;;;;34.25;17.52;;;;;;;5.73;66.32;101303.13;4994300;28;20120;-38
2022/11/19 07:15:34;;;;;;;34.38;18.05;;;;;;;5.31;66.33;101303.16;4993246;28;20022;-40
2022/11/19 07:18:00;;;;;;;33.13;17.25;;;;;;;5.66;66.76;101307.19;4992913;28;20042;-41
2022/11/19 07:20:26;;;;;;;29.40;16.73;;;;;;;5.17;66.76;101309.47;4992261;28;20081;-38
2022/11/19 07:22:51;;;;;;;32.53;16.90;;;;;;;5.75;66.09;101306.66;4992395;28;20022;-39
2022/11/19 07:25:16;;;;;;;32.70;18.02;;;;;;;5.18;66.82;101311.25;4992638;28;20068;-44
2022/11/19 07:27:46;;;;;;;31.38;17.98;;;;;;;5.54;65.64;101314.44;4991763;28;20546;-39
2022/11/19 07:30:12;;;;;;;32.95;16.77;;;;;;;5.61;66.23;101313.00;4993490;28;20084;-39
2022/11/19 07:32:38;;;;;;;35.28;17.98;;;;;;;5.33;66.34;101321.31;4992877;28;20034;-39
2022/11/19 07:35:03;;;;;;;33.58;17.90;;;;;;;5.05;66.41;101321.00;4992694;28;20034;-42
2022/11/19 07:37:29;;;;;;;32.67;17.50;;;;;;;5.48;66.14;101327.13;4993529;28;20025;-43
2022/11/19 07:39:54;;;;;;;34.78;18.15;;;;;;;5.25;66.01;101333.91;4992933;28;20138;-39
2022/11/19 07:45:04;;;;;;;34.35;18.23;;;;;;;5.25;65.83;101340.78;4992306;28;20080;-41
2022/11/19 07:47:29;;;;;;;32.15;16.90;;;;;;;5.78;65.11;101337.84;4992231;28;20482;-40
2022/11/19 07:49:54;;;;;;;32.35;16.98;;;;;;;5.32;66.21;101340.22;4992304;28;20026;-39
2022/11/19 07:52:20;;;;;;;34.17;18.08;;;;;;;5.47;65.72;101346.06;4991635;28;20727;-42
2022/11/19 07:54:46;;;;;;;33.08;18.42;;;;;;;5.39;64.79;101346.53;4992355;28;20117;-43
2022/11/19 07:57:12;;;;;;;34.80;17.85;;;;;;;5.16;66.05;101355.91;4991625;28;20527;-41
2022/11/19 07:59:37;;;;;;;33.55;17.52;;;;;;;5.23;65.92;101361.41;4992068;28;20061;-39
2022/11/19 08:02:03;;;;;;;32.97;17.52;;;;;;;5.39;65.64;101346.53;4991706;28;20101;-40
2022/11/19 08:04:28;;;;;;;32.70;16.90;;;;;;;5.49;64.91;101354.72;4991751;28;20022;-44
2022/11/19 08:06:54;;;;;;;32.38;17.45;;;;;;;5.47;64.98;101353.81;4991850;28;20546;-40
2022/11/19 08:09:19;;;;;;;34.40;17.85;;;;;;;5.75;64.81;101352.31;4991795;28;20072;-39
2022/11/19 08:11:44;;;;;;;32.67;17.33;;;;;;;5.92;65.03;101357.38;4991572;28;20058;-37
2022/11/19 08:14:13;;;;;;;31.23;17.65;;;;;;;5.58;63.97;101360.28;4991547;28;20053;-38
2022/11/19 08:19:22;;;;;;;32.90;17.42;;;;;;;5.91;63.77;101371.19;4991874;28;20100;-39
2022/11/19 08:21:48;;;;;;;34.10;17.60;;;;;;;5.82;63.72;101369.88;4991178;28;20031;-40
2022/11/19 08:24:15;;;;;;;33.00;17.63;;;;;;;5.64;64.49;101375.19;4991328;28;20048;-41
2022/11/19 08:26:42;;;;;;;33.17;17.52;;;;;;;6.02;63.76;101377.66;4991451;28;20031;-42
2022/11/19 08:29:08;;;;;;;33.35;17.95;;;;;;;5.86;63.50;101392.44;4991519;28;20041;-41
2022/11/19 08:31:33;;;;;;;32.53;18.10;;;;;;;5.92;63.71;101377.19;4991577;28;20022;-39
2022/11/19 08:34:01;;;;;;;31.80;16.75;;;;;;;6.05;63.38;101380.34;4991333;28;20113;-39
2022/11/19 08:36:26;;;;;;;32.60;17.02;;;;;;;6.17;63.27;101376.47;4991275;28;20030;-38
2022/11/19 08:38:51;;;;;;;33.03;17.70;;;;;;;5.85;63.06;101385.53;4990134;28;20027;-42
2022/11/19 08:44:02;;;;;;;33.40;18.00;;;;;;;6.28;62.88;101375.19;4991155;28;20318;-43
2022/11/19 08:46:27;;;;;;;31.42;17.52;;;;;;;6.56;62.47;101382.28;4991012;28;20357;-40
2022/11/19 08:48:52;;;;;;;30.60;17.05;;;;;;;6.20;62.40;101386.97;4991029;28;20018;-38
2022/11/19 08:51:18;;;;;;;32.90;17.45;;;;;;;6.30;62.33;101392.53;4990887;28;20022;-43
2022/11/19 08:53:43;;;;;;;33.15;17.10;;;;;;;5.83;62.90;101397.50;4990469;28;20061;-44
2022/11/19 08:56:09;;;;;;;31.02;17.25;;;;;;;6.23;62.71;101400.88;4990464;28;20506;-39
2022/11/19 08:58:34;;;;;;;30.90;16.90;;;;;;;5.96;62.65;101405.00;4990761;28;20030;-38
2022/11/19 09:01:07;;;;;;;29.45;16.17;;;;;;;5.97;62.60;101410.25;4990595;28;20157;-41
2022/11/19 09:03:32;;;;;;;34.13;17.13;;;;;;;5.82;62.22;101414.75;4991295;28;20499;-38
2022/11/19 09:05:59;;;;;;;29.95;16.80;;;;;;;6.39;61.86;101417.94;4991035;28;20037;-39
2022/11/19 09:08:24;;;;;;;31.20;16.77;;;;;;;6.40;61.51;101417.09;4990542;28;20414;-41
2022/11/19 09:10:49;;;;;;;31.55;16.80;;;;;;;6.19;62.01;101418.84;4990269;28;20022;-40
2022/11/19 09:13:15;;;;;;;32.08;16.90;;;;;;;6.19;61.95;101419.72;4991021;28;20053;-40
2022/11/19 09:15:40;;;;;;;30.02;16.85;;;;;;;6.54;62.26;101418.50;4991366;28;20022;-42
2022/11/19 09:18:06;;;;;;;30.17;16.70;;;;;;;6.39;61.84;101425.69;4990924;28;20109;-38
2022/11/19 09:20:31;;;;;;;29.10;16.33;;;;;;;6.62;61.06;101417.09;4990701;28;20041;-40
2022/11/19 09:22:56;;;;;;;27.77;15.85;;;;;;;6.29;61.06;101436.50;4990453;28;20038;-39
2022/11/19 09:25:22;;;;;;;30.25;16.27;;;;;;;6.40;60.63;101437.81;4989711;28;20088;-39
2022/11/19 09:27:47;;;;;;;28.17;16.27;;;;;;;6.11;60.64;101434.06;4990768;28;20129;-42
2022/11/19 09:30:12;;;;;;;30.88;16.20;;;;;;;5.87;61.76;101431.38;4990758;28;20082;-41
2022/11/19 09:32:38;;;;;;;29.33;15.80;;;;;;;6.06;61.24;101435.59;4990820;28;20462;-40
2022/11/19 09:35:03;;;;;;;29.13;16.30;;;;;;;6.20;60.92;101441.31;5027900;23;20152;-45
2022/11/19 09:37:32;;;;;;;30.25;16.13;;;;;;;6.07;60.85;101432.19;5011432;28;20117;-42
2022/11/19 09:39:58;;;;;;;31.17;17.02;;;;;;;6.14;61.42;101446.25;5012320;28;20737;-44
2022/11/19 09:42:48;;;;;;;32.67;16.42;;;;;;;6.01;61.37;101450.94;5017447;28;20486;-43
2022/11/19 09:45:24;;;;;;;30.63;16.13;;;;;;;6.04;61.97;101456.22;5019485;28;20100;-42
2022/11/19 09:48:17;;;;;;;30.30;16.58;;;;;;;5.88;60.68;101468.47;5018468;28;20025;-44
2022/11/19 09:50:53;;;;;;;31.75;17.63;;;;;;;5.59;60.84;101470.69;5019214;28;20036;-47
2022/11/19 09:53:20;;;;;;;33.83;17.63;;;;;;;5.75;61.21;101469.63;5017649;28;20022;-42
2022/11/19 09:55:49;;;;;;;29.40;16.67;;;;;;;5.66;61.99;101471.84;5017817;28;20093;-44
2022/11/19 09:58:23;;;;;;;30.27;17.50;;;;;;;5.41;61.26;101472.50;5018939;28;20017;-43
2022/11/19 10:00:49;;;;;;;33.25;17.25;;;;;;;5.30;61.32;101471.16;5024279;28;20334;-44
2022/11/19 10:03:19;;;;;;;31.63;16.40;;;;;;;5.52;60.41;101466.06;5030391;28;20469;-50
2022/11/19 10:05:56;;;;;;;31.55;16.70;;;;;;;5.19;61.52;101481.00;5027396;28;20026;-43
2022/11/19 10:08:46;;;;;;;30.20;16.98;;;;;;;5.72;61.23;101478.16;5019044;28;20052;-43
2022/11/19 10:11:20;;;;;;;30.75;16.67;;;;;;;5.29;60.67;101479.72;5013565;28;20026;-44
2022/11/19 10:14:26;;;;;;;30.38;16.42;;;;;;;6.08;60.53;101481.44;5013929;28;20141;-48
2022/11/19 10:17:19;;;;;;;30.90;16.20;;;;;;;6.26;60.12;101483.00;5013728;28;20030;-45
2022/11/19 10:20:22;;;;;;;29.08;15.63;;;;;;;5.97;60.24;101485.28;4976747;28;20427;-43
2022/11/19 10:23:00;;;;;;;28.67;15.73;;;;;;;5.51;60.86;101482.41;5013052;28;20053;-43
2022/11/19 10:25:42;;;;;;;30.45;16.30;;;;;;;5.68;60.74;101478.84;5013765;28;20544;-43
2022/11/19 10:28:28;;;;;;;31.73;16.25;;;;;;;5.87;59.62;101480.53;5013424;28;20126;-43
2022/11/19 10:31:07;;;;;;;31.80;16.58;;;;;;;5.67;60.70;101481.38;5015882;28;20078;-44
2022/11/19 10:33:39;;;;;;;30.33;16.77;;;;;;;5.49;60.25;101489.22;5013486;28;20040;-49
2022/11/19 10:36:13;;;;;;;30.00;15.95;;;;;;;5.37;60.64;101487.81;5013840;28;20028;-44
2022/11/19 10:39:08;;;;;;;30.67;17.02;;;;;;;5.83;60.16;101488.97;5014559;28;20022;-42
2022/11/19 10:41:44;;;;;;;31.05;16.35;;;;;;;5.82;60.21;101482.00;5013879;28;20057;-44
2022/11/19 10:44:42;;;;;;;32.42;17.25;;;;;;;5.76;60.38;101476.59;5013876;28;20375;-44
2022/11/19 10:47:34;;;;;;;32.60;17.50;;;;;;;5.83;59.96;101473.44;5014513;28;20068;-46
2022/11/19 10:49:59;;;;;;;32.40;17.75;;;;;;;5.91;59.77;101474.69;5015976;28;20048;-44
2022/11/19 10:52:48;;;;;;;30.85;16.65;;;;;;;5.71;59.08;101476.41;5013651;28;20490;-43
2022/11/19 10:55:22;;;;;;;35.28;18.08;;;;;;;5.78;60.07;101472.38;5015234;28;20034;-46
2022/11/19 10:57:49;;;;;;;30.25;16.05;;;;;;;6.16;60.18;101466.19;5014593;28;20022;-42
2022/11/19 11:00:16;;;;;;;32.38;17.25;;;;;;;6.07;59.04;101464.13;5015822;28;20414;-44
2022/11/19 11:02:45;;;;;;;32.53;17.77;;;;;;;5.97;59.93;101456.81;5013481;28;20064;-43
2022/11/19 11:05:14;;;;;;;31.58;17.25;;;;;;;5.61;58.52;101455.25;5013970;28;20426;-43
2022/11/19 11:07:50;;;;;;;32.60;17.52;;;;;;;5.56;59.15;101447.28;5014563;28;20029;-43
2022/11/19 11:10:28;;;;;;;34.03;17.50;;;;;;;5.85;60.25;101448.53;5015052;28;20743;-43
2022/11/19 11:15:49;;;;;;;31.85;16.95;;;;;;;6.23;59.01;101450.09;5015263;28;20041;-45
2022/11/19 11:18:16;;;;;;;32.67;17.65;;;;;;;6.06;58.88;101459.78;5013169;28;20043;-42
2022/11/19 11:20:48;;;;;;;29.33;16.35;;;;;;;6.10;58.87;101461.66;5014212;28;20048;-45
2022/11/19 11:23:28;;;;;;;30.10;17.02;;;;;;;5.68;58.40;101458.13;5014847;28;20207;-43
2022/11/19 11:26:10;;;;;;;30.52;16.40;;;;;;;6.00;58.56;101463.81;5013703;28;20033;-48
2022/11/19 11:28:51;;;;;;;29.42;16.65;;;;;;;5.95;59.22;101458.44;5013191;28;20052;-44
2022/11/19 11:31:35;;;;;;;32.92;16.60;;;;;;;6.36;58.79;101456.63;5012310;28;20038;-45
2022/11/19 11:34:02;;;;;;;31.02;16.63;;;;;;;6.48;56.91;101462.28;5012376;28;20034;-43
2022/11/19 11:36:30;;;;;;;29.58;15.82;;;;;;;6.67;57.26;101458.72;5012750;28;20028;-43
2022/11/19 11:38:58;;;;;;;27.45;15.38;;;;;;;6.19;56.00;101457.69;5012752;28;20104;-44
2022/11/19 11:41:38;;;;;;;28.48;15.63;;;;;;;6.14;56.35;101448.84;5012760;28;20044;-43
2022/11/19 11:44:15;;;;;;;28.35;15.98;;;;;;;6.35;57.09;101447.97;5013087;28;20034;-43
2022/11/19 11:47:17;;;;;;;28.38;15.57;;;;;;;6.47;57.25;101451.06;5014032;28;20030;-46
2022/11/19 11:49:45;;;;;;;27.83;14.93;;;;;;;6.40;57.03;101451.63;4972247;28;20046;-43